Del Norte, CO

7:18 AM MDT on October 01, 2016 (GMT -0600)
Mill Creek | | Change Station

Elev 8386 ft 37.63 °N, 106.67 °W | Updated 13 minutes ago

Clear
Clear
32.1 °F
Feels Like 32 °F
N
0.0
Wind Variable Wind from South

Today
High -- | Low -- °F
--% Chance of Precip.
Yesterday
High -- | Low -- °F
Precip. -- in
Pressure 30.17 in
Visibility 10.0 miles
Clouds Clear
Windchill 32 °F
Dew Point 29 °F
Humidity 89%
Rainfall 0.00 in
Snow Depth Not available.
7:01 AM 6:47 PM
New Moon, 0% visible
METAR KALS 011252Z AUTO 00000KT 10SM CLR 02/01 A3032 RMK AO2 SLP216 T00220011
Pressure 30.17 in
Visibility 10.0 miles
Clouds Clear
Windchill 32 °F
Dew Point 29 °F
Humidity 89%
Rainfall 0.00 in
Snow Depth Not available.
7:01 AM 6:47 PM
New Moon, 0% visible
METAR KALS 011252Z AUTO 00000KT 10SM CLR 02/01 A3032 RMK AO2 SLP216 T00220011

10-Day Weather Forecast

Almanac

Astronomy

Oct. 01, 2016 Rise Set
Actual Time
Civil Twilight
Nautical Twilight
Astronomical Twilight
Moon
Length of Visible Light
Length of Day
Tomorrow will be .
, % of the Moon is Illuminated

Today's Extremes

State Highs State Lows

Community

WunderPhotos

Upload Photos

1,942,929 photos uploaded!

WunderBlog® & News

Nearby

Air Quality

  Air Quality AQ Index Pollutant
Not available.

Snow Depth

Station Depth Elevation

Earthquake Activity

City Distance Mag. Time & Date
Minimum magnitude displayed is 2.5.

Coastal Water Temperatures

Place Temperature

Stations

Nearby Weather Stations

Station Location Temp. Windchill Dew Point Humidity Wind Precip. Elev Updated Type
                   

Watches & Warnings

There are currently no watches in effect.